Main page
METAR-TAF:

METAR-TAF

Airports :

MoD Boscombe Down

Boscombe Down, England

latitude: 51-10N, longitude: 001-45W, elevation: 124 m

Current weather observation

The report was made 1 hour and 7 minutes ago, at 21:50 UTC
Wind 13 kt from the Northeast
Temperature 5°C
Humidity 81%
Pressure 1014 hPa
Visibility 10 km or more
Scattered clouds at a height of 2200 ft
Broken clouds at a height of 6000 ft

METAR: EGDM 192150Z 04013KT 9999 SCT022 BKN060 05/02 Q1014 WHT BECMG FEW020 BLU

Time: 22:57 (22:57 UTC)

Forecast

The report was made 3 hours and 17 minutes ago, at 19:40 UTC
Forecast valid from 19 at 21 UTC to 19 at 24 UTC
Wind 11 kt from the North/Northeast
Visibility 10 km or more
Scattered clouds at a height of 2500 ft
Probability 30% :
Temporary
from 19 at 21 UTC to 19 at 24 UTC
Visibility: 7000 m
Scattered clouds at a height of 1600 ft
light rain showers

TAF: EGDM 191940Z 1921/1924 03011KT 9999 SCT025 PROB30 TEMPO 1921/1924 7000 -SHRA SCT016

Weather observations and forecasts of more than 4000 airports (METAR and TAF reports).

The available stations are represented by yellow and red dots on the map.

Hover mouse over dot to see the name of the station.

Then click to see weather observations and forecasts.

To change the map : click on the green buttons with a black cross to zoom in, on the green button with a dash to zoom out, or on the green arrows for adjacent maps.


METAR-TAF: